createdAt,value
2022-09-12T00:01:15.643Z,5.30
2022-09-12T00:04:01.983Z,4.10
2022-09-12T00:06:46.992Z,4.87
2022-09-12T00:09:31.877Z,4.27
2022-09-12T00:12:17.096Z,4.73
2022-09-12T00:15:02.242Z,5.13
2022-09-12T00:17:47.479Z,4.93
2022-09-12T00:20:32.531Z,4.40
2022-09-12T00:23:17.745Z,4.87
2022-09-12T00:26:06.432Z,4.67
2022-09-12T00:28:51.793Z,4.63
2022-09-12T00:31:36.811Z,4.33
2022-09-12T00:34:21.870Z,5.00
2022-09-12T00:37:06.942Z,5.17
2022-09-12T00:39:52.082Z,4.87
2022-09-12T00:42:36.996Z,4.87
2022-09-12T00:45:29.486Z,4.37
2022-09-12T00:48:32.162Z,4.80
2022-09-12T00:51:19.535Z,4.13
2022-09-12T00:54:09.596Z,4.53
2022-09-12T00:57:01.758Z,5.03
2022-09-12T01:00:00.547Z,4.67
2022-09-12T01:02:50.423Z,4.77
2022-09-12T01:05:39.774Z,4.50
2022-09-12T01:08:25.816Z,3.90
2022-09-12T01:11:13.154Z,3.90
2022-09-12T01:13:59.644Z,4.37
2022-09-12T01:16:45.500Z,3.83
2022-09-12T01:19:52.178Z,3.77
2022-09-12T01:23:14.164Z,4.07
2022-09-12T01:26:12.215Z,4.17
2022-09-12T01:29:34.857Z,3.60
2022-09-12T01:32:45.056Z,3.73
2022-09-12T01:35:57.692Z,4.33
2022-09-12T01:38:59.185Z,3.77
2022-09-12T01:42:18.572Z,3.50
2022-09-12T01:45:16.643Z,3.37
2022-09-12T01:48:14.580Z,3.30
2022-09-12T01:51:11.322Z,3.97
2022-09-12T01:54:20.829Z,3.43
2022-09-12T01:57:14.129Z,3.40
2022-09-12T02:00:04.824Z,3.00
2022-09-12T02:03:09.909Z,3.90
2022-09-12T02:06:08.244Z,3.60
2022-09-12T02:08:58.577Z,3.93
2022-09-12T02:11:46.037Z,3.77
2022-09-12T02:14:36.648Z,3.33
2022-09-12T02:17:26.587Z,3.33
2022-09-12T02:20:44.040Z,3.13
2022-09-12T02:23:32.015Z,3.30
2022-09-12T02:26:25.398Z,3.30
2022-09-12T02:29:11.510Z,3.40
2022-09-12T02:32:06.057Z,3.27
2022-09-12T02:35:08.399Z,3.70
2022-09-12T02:38:00.955Z,2.57
2022-09-12T02:40:46.181Z,3.23
2022-09-12T02:43:31.362Z,3.20
2022-09-12T02:46:23.340Z,3.10
2022-09-12T02:49:09.562Z,3.10
2022-09-12T02:51:55.738Z,3.17
2022-09-12T02:54:41.037Z,2.80
2022-09-12T02:57:26.313Z,3.23
2022-09-12T03:00:12.365Z,2.90
2022-09-12T03:03:27.821Z,2.93
2022-09-12T03:06:42.284Z,2.63
2022-09-12T03:09:29.973Z,3.57
2022-09-12T03:12:21.378Z,3.10
2022-09-12T03:15:24.658Z,3.20
2022-09-12T03:18:34.680Z,3.00
2022-09-12T03:21:47.106Z,2.90
2022-09-12T03:24:34.555Z,3.30
2022-09-12T03:27:41.824Z,3.40
2022-09-12T03:30:27.453Z,2.63
2022-09-12T03:33:23.287Z,3.00
2022-09-12T03:36:17.274Z,2.83
2022-09-12T03:39:02.449Z,3.00
2022-09-12T03:41:47.359Z,2.80
2022-09-12T03:44:32.240Z,2.90
2022-09-12T03:47:17.092Z,3.00
2022-09-12T03:50:02.680Z,2.70
2022-09-12T03:52:47.951Z,2.77
2022-09-12T03:55:32.886Z,2.53
2022-09-12T03:58:17.810Z,2.83
2022-09-12T04:01:12.624Z,2.63
2022-09-12T04:03:57.577Z,2.47
2022-09-12T04:06:43.044Z,2.47
2022-09-12T04:09:27.992Z,2.80
2022-09-12T04:12:13.966Z,2.40
2022-09-12T04:14:58.833Z,2.30
2022-09-12T04:17:43.663Z,2.43
2022-09-12T04:20:28.773Z,2.43
2022-09-12T04:23:13.875Z,2.63
2022-09-12T04:26:00.689Z,2.30
2022-09-12T04:28:46.504Z,2.40
2022-09-12T04:31:31.582Z,2.40
2022-09-12T04:34:16.750Z,2.50
2022-09-12T04:37:01.751Z,2.60
2022-09-12T04:39:48.448Z,2.40
2022-09-12T04:42:33.663Z,2.63
2022-09-12T04:45:19.103Z,2.40
2022-09-12T04:48:04.406Z,2.30
2022-09-12T04:50:49.823Z,2.33
2022-09-12T04:53:35.853Z,2.60
2022-09-12T04:56:21.841Z,2.30
2022-09-12T04:59:07.283Z,2.07
2022-09-12T05:01:52.802Z,2.40
2022-09-12T05:04:37.870Z,2.20
2022-09-12T05:07:22.962Z,2.33
2022-09-12T05:10:08.965Z,2.30
2022-09-12T05:12:54.470Z,2.30
2022-09-12T05:15:39.935Z,2.00
2022-09-12T05:18:26.453Z,2.10
2022-09-12T05:21:14.619Z,2.10
2022-09-12T05:24:00.081Z,2.07
2022-09-12T05:26:44.978Z,1.80
2022-09-12T05:29:29.795Z,2.20
2022-09-12T05:32:14.634Z,2.07
2022-09-12T05:35:00.261Z,2.23
2022-09-12T05:37:45.429Z,2.03
2022-09-12T05:40:30.632Z,1.80
2022-09-12T05:43:15.731Z,1.80
2022-09-12T05:46:02.247Z,2.10
2022-09-12T05:48:51.460Z,1.90
2022-09-12T05:51:41.483Z,1.70
2022-09-12T05:54:31.389Z,2.00
2022-09-12T05:57:18.436Z,1.70
2022-09-12T06:00:05.968Z,2.03
2022-09-12T06:02:57.195Z,1.80
2022-09-12T06:05:42.528Z,1.63
2022-09-12T06:08:27.845Z,2.30
2022-09-12T06:11:15.786Z,4.90
2022-09-12T06:14:02.025Z,12.27
2022-09-12T06:16:48.642Z,19.83
2022-09-12T06:19:34.478Z,22.77
2022-09-12T06:22:20.150Z,27.57
2022-09-12T06:25:05.853Z,48.90
2022-09-12T06:27:51.617Z,34.73
2022-09-12T06:30:36.971Z,39.20
2022-09-12T06:33:22.203Z,42.07
2022-09-12T06:36:12.524Z,41.63
2022-09-12T06:39:00.986Z,53.07
2022-09-12T06:41:46.711Z,60.37
2022-09-12T06:44:32.411Z,54.77
2022-09-12T06:47:17.679Z,73.33
2022-09-12T06:50:02.510Z,72.73
2022-09-12T06:52:49.210Z,70.10
2022-09-12T06:55:34.762Z,78.63
2022-09-12T06:58:19.843Z,90.70
2022-09-12T07:01:07.903Z,103.17
2022-09-12T07:03:59.244Z,89.87
2022-09-12T07:06:44.866Z,98.30
2022-09-12T07:09:30.822Z,91.37
2022-09-12T07:12:16.054Z,108.47
2022-09-12T07:15:01.098Z,98.63
2022-09-12T07:17:46.246Z,105.43
2022-09-12T07:20:33.064Z,112.50
2022-09-12T07:23:18.162Z,117.03
2022-09-12T07:26:03.519Z,125.00
2022-09-12T07:28:54.500Z,124.83
2022-09-12T07:31:39.977Z,129.30
2022-09-12T07:34:25.317Z,133.10
2022-09-12T07:37:10.578Z,137.77
2022-09-12T07:39:56.210Z,134.63
2022-09-12T07:42:41.435Z,147.07
2022-09-12T07:45:27.039Z,129.30
2022-09-12T07:48:12.485Z,130.80
2022-09-12T07:50:59.759Z,140.53
2022-09-12T07:53:45.753Z,148.90
2022-09-12T07:56:33.612Z,155.80
2022-09-12T07:59:41.556Z,148.73
2022-09-12T08:02:26.154Z,151.83
2022-09-12T08:05:11.431Z,161.07
2022-09-12T08:07:57.823Z,166.63
2022-09-12T08:10:43.055Z,171.27
2022-09-12T08:13:29.786Z,175.57
2022-09-12T08:16:21.420Z,175.40
2022-09-12T08:19:06.336Z,185.13
2022-09-12T08:21:51.402Z,225.90
2022-09-12T08:24:36.922Z,322.90
2022-09-12T08:27:22.026Z,409.27
2022-09-12T08:30:07.589Z,402.60
2022-09-12T08:32:52.581Z,435.53
2022-09-12T08:35:37.476Z,465.23
2022-09-12T08:38:23.131Z,501.13
2022-09-12T08:41:35.751Z,490.20
2022-09-12T08:44:40.796Z,504.70
2022-09-12T08:47:33.863Z,496.00
2022-09-12T08:50:22.226Z,481.23
2022-09-12T08:53:18.638Z,471.13
2022-09-12T08:56:06.454Z,467.50
2022-09-12T08:58:51.738Z,459.17
2022-09-12T09:01:45.469Z,452.97
2022-09-12T09:04:36.458Z,455.63
2022-09-12T09:07:54.995Z,449.33
2022-09-12T09:10:49.161Z,431.77
2022-09-12T09:14:22.564Z,441.47
2022-09-12T09:17:15.768Z,435.93
2022-09-12T09:20:23.205Z,434.43
2022-09-12T09:23:28.437Z,437.77
2022-09-12T09:26:15.249Z,434.70
2022-09-12T09:29:14.546Z,427.00
2022-09-12T09:32:03.399Z,424.77
2022-09-12T09:34:48.329Z,432.97
2022-09-12T09:37:43.394Z,429.43
2022-09-12T09:40:49.926Z,422.33
2022-09-12T09:43:37.714Z,424.50
2022-09-12T09:46:22.694Z,424.10
2022-09-12T09:49:13.005Z,417.47
2022-09-12T09:52:00.849Z,416.83
2022-09-12T09:54:57.597Z,419.87
2022-09-12T09:57:46.724Z,412.33
2022-09-12T10:00:34.389Z,415.77
2022-09-12T10:03:28.655Z,411.63
2022-09-12T10:06:23.001Z,404.07
2022-09-12T10:09:22.446Z,402.47
2022-09-12T10:12:28.292Z,397.03
2022-09-12T10:15:18.042Z,401.77
2022-09-12T10:18:04.335Z,398.13
2022-09-12T10:20:49.247Z,393.50
2022-09-12T10:23:37.270Z,384.97
2022-09-12T10:26:22.362Z,374.00
2022-09-12T10:29:25.579Z,368.83
2022-09-12T10:32:12.601Z,361.37
2022-09-12T10:35:01.885Z,353.83
2022-09-12T10:38:05.925Z,355.40
2022-09-12T10:41:05.410Z,369.13
2022-09-12T10:43:50.658Z,351.17
2022-09-12T10:46:35.878Z,345.77
2022-09-12T10:49:26.083Z,343.60
2022-09-12T10:52:23.068Z,332.17
2022-09-12T10:55:15.699Z,330.30
2022-09-12T10:58:32.788Z,321.47
2022-09-12T11:01:20.686Z,317.07
2022-09-12T11:04:30.775Z,312.87
2022-09-12T11:07:39.354Z,302.50
2022-09-12T11:10:54.680Z,296.10
2022-09-12T11:13:54.418Z,296.20
2022-09-12T11:17:13.263Z,284.73
2022-09-12T11:20:13.804Z,279.60
2022-09-12T11:23:01.926Z,291.20
2022-09-12T11:26:04.959Z,284.73
2022-09-12T11:29:08.830Z,285.57
2022-09-12T11:31:56.750Z,279.87
2022-09-12T11:34:59.775Z,275.03
2022-09-12T11:37:51.183Z,277.37
2022-09-12T11:40:56.433Z,277.87
2022-09-12T11:43:46.784Z,262.20
2022-09-12T11:46:40.138Z,266.47
2022-09-12T11:49:43.971Z,265.50
2022-09-12T11:52:37.079Z,264.67
2022-09-12T11:55:28.071Z,256.33
2022-09-12T11:58:14.158Z,261.07
2022-09-12T12:01:09.169Z,262.20
2022-09-12T12:03:55.473Z,259.13
2022-09-12T12:07:05.931Z,250.03
2022-09-12T12:09:52.787Z,236.47
2022-09-12T12:12:38.352Z,237.70
2022-09-12T12:15:25.568Z,239.60
2022-09-12T12:18:24.313Z,242.67
2022-09-12T12:21:21.578Z,245.40
2022-09-12T12:24:09.815Z,240.97
2022-09-12T12:27:03.715Z,237.03
2022-09-12T12:29:48.918Z,231.83
2022-09-12T12:32:33.849Z,227.83
2022-09-12T12:35:57.647Z,228.20
2022-09-12T12:38:42.527Z,201.07
2022-09-12T12:41:27.910Z,192.23
2022-09-12T12:44:44.499Z,188.33
2022-09-12T12:47:38.529Z,204.43
2022-09-12T12:50:26.834Z,214.70
2022-09-12T12:53:23.082Z,226.57
2022-09-12T12:56:27.745Z,242.63
2022-09-12T12:59:19.900Z,249.80
2022-09-12T13:02:05.576Z,266.97
2022-09-12T13:04:51.717Z,265.10
2022-09-12T13:07:40.252Z,270.80
2022-09-12T13:10:29.224Z,275.33
2022-09-12T13:13:25.458Z,308.57
2022-09-12T13:16:11.569Z,326.50
2022-09-12T13:19:02.074Z,328.47
2022-09-12T13:22:07.798Z,336.43
2022-09-12T13:24:52.978Z,359.77
2022-09-12T13:27:38.210Z,367.17
2022-09-12T13:30:23.722Z,379.93
2022-09-12T13:33:26.537Z,391.03
2022-09-12T13:36:42.435Z,407.60
2022-09-12T13:39:29.578Z,418.77
2022-09-12T13:42:49.267Z,425.83
2022-09-12T13:45:39.230Z,442.53
2022-09-12T13:48:25.439Z,459.83
2022-09-12T13:51:24.117Z,458.57
2022-09-12T13:54:21.324Z,470.90
2022-09-12T13:57:41.300Z,484.53
2022-09-12T14:00:28.276Z,499.07
2022-09-12T14:03:58.953Z,512.30
2022-09-12T14:06:52.589Z,537.17
2022-09-12T14:09:40.455Z,542.77
2022-09-12T14:12:30.207Z,521.60
2022-09-12T14:15:26.468Z,479.67
2022-09-12T14:18:23.356Z,456.83
2022-09-12T14:21:12.675Z,372.20
2022-09-12T14:24:00.673Z,265.17
2022-09-12T14:26:46.370Z,154.00
2022-09-12T14:29:33.274Z,139.40
2022-09-12T14:32:26.198Z,113.83
2022-09-12T14:35:11.348Z,86.13
2022-09-12T14:37:56.721Z,62.63
2022-09-12T14:40:44.489Z,55.93
2022-09-12T14:43:33.373Z,46.67
2022-09-12T14:46:23.249Z,39.47
2022-09-12T14:49:34.466Z,28.80
2022-09-12T14:52:33.083Z,22.47
2022-09-12T14:55:20.637Z,18.40
2022-09-12T14:58:22.391Z,15.30
2022-09-12T15:01:07.261Z,15.23
2022-09-12T15:03:55.365Z,16.23
2022-09-12T15:06:41.035Z,15.80
2022-09-12T15:09:26.897Z,15.90
2022-09-12T15:12:12.082Z,13.80
2022-09-12T15:15:03.275Z,9.17
2022-09-12T15:17:48.640Z,7.97
2022-09-12T15:20:37.266Z,7.97
2022-09-12T15:23:38.054Z,7.83
2022-09-12T15:26:27.375Z,8.07
2022-09-12T15:29:12.594Z,7.57
2022-09-12T15:31:57.519Z,8.40
2022-09-12T15:34:42.790Z,7.93
2022-09-12T15:37:28.282Z,8.23
2022-09-12T15:40:13.943Z,7.90
2022-09-12T15:43:00.114Z,7.87
2022-09-12T15:45:46.819Z,8.10
2022-09-12T15:48:33.125Z,8.73
2022-09-12T15:51:21.309Z,7.60
2022-09-12T15:54:06.463Z,8.57
2022-09-12T15:56:51.651Z,7.67
2022-09-12T15:59:37.095Z,7.30
2022-09-12T16:02:22.099Z,8.10
2022-09-12T16:05:14.994Z,7.90
2022-09-12T16:08:00.299Z,8.20
2022-09-12T16:10:55.795Z,7.27
2022-09-12T16:13:40.925Z,8.43
2022-09-12T16:16:25.974Z,8.57
2022-09-12T16:19:12.208Z,7.67
2022-09-12T16:21:56.989Z,7.67
2022-09-12T16:24:41.970Z,7.93
2022-09-12T16:27:26.747Z,8.50
2022-09-12T16:30:12.981Z,7.60
2022-09-12T16:32:58.390Z,7.33
2022-09-12T16:35:43.638Z,7.77
2022-09-12T16:38:28.803Z,8.17
2022-09-12T16:41:14.878Z,7.03
2022-09-12T16:44:00.124Z,7.17
2022-09-12T16:46:46.057Z,7.80
2022-09-12T16:49:31.498Z,8.17
2022-09-12T16:52:17.311Z,7.70
2022-09-12T16:55:02.294Z,7.77
2022-09-12T16:57:49.274Z,7.53
2022-09-12T17:00:34.229Z,7.00
2022-09-12T17:03:19.094Z,7.80
2022-09-12T17:06:09.621Z,7.63
2022-09-12T17:08:58.015Z,7.73
2022-09-12T17:11:43.226Z,7.87
2022-09-12T17:14:28.210Z,7.50
2022-09-12T17:17:13.119Z,7.77
2022-09-12T17:19:58.006Z,7.97
2022-09-12T17:22:43.035Z,7.73
2022-09-12T17:25:27.841Z,7.87
2022-09-12T17:28:12.746Z,7.70
2022-09-12T17:30:59.600Z,7.37
2022-09-12T17:33:45.183Z,7.13
2022-09-12T17:36:31.874Z,7.93
2022-09-12T17:39:16.907Z,7.90
2022-09-12T17:42:01.912Z,7.27
2022-09-12T17:44:46.742Z,7.23
2022-09-12T17:47:31.632Z,7.43
2022-09-12T17:50:31.444Z,7.67
2022-09-12T17:53:17.828Z,7.87
2022-09-12T17:56:05.137Z,8.20
2022-09-12T17:58:50.113Z,7.67
2022-09-12T18:01:53.807Z,6.97
2022-09-12T18:04:47.118Z,7.60
2022-09-12T18:07:33.098Z,7.70
2022-09-12T18:10:17.937Z,7.30
2022-09-12T18:13:02.912Z,7.90
2022-09-12T18:15:48.098Z,8.07
2022-09-12T18:18:34.435Z,7.87
2022-09-12T18:21:19.805Z,8.13
2022-09-12T18:24:05.379Z,8.27
2022-09-12T18:26:50.730Z,7.23
2022-09-12T18:29:35.900Z,7.60
2022-09-12T18:32:20.814Z,7.10
2022-09-12T18:35:07.359Z,7.33
2022-09-12T18:37:52.159Z,7.70
2022-09-12T18:40:37.071Z,7.53
2022-09-12T18:43:22.011Z,7.73
2022-09-12T18:46:09.281Z,7.73
2022-09-12T18:48:57.602Z,7.50
2022-09-12T18:51:42.901Z,7.20
2022-09-12T18:54:28.119Z,7.17
2022-09-12T18:57:13.431Z,7.27
2022-09-12T18:59:59.558Z,7.57
2022-09-12T19:02:44.724Z,7.80
2022-09-12T19:05:29.427Z,7.73
2022-09-12T19:08:14.238Z,7.63
2022-09-12T19:10:59.161Z,7.60
2022-09-12T19:13:46.037Z,7.60
2022-09-12T19:16:31.866Z,7.30
2022-09-12T19:19:17.035Z,7.27
2022-09-12T19:22:02.246Z,7.03
2022-09-12T19:24:47.109Z,7.80
2022-09-12T19:27:32.070Z,7.63
2022-09-12T19:30:17.145Z,7.23
2022-09-12T19:33:03.001Z,7.27
2022-09-12T19:35:48.833Z,7.10
2022-09-12T19:38:34.504Z,7.30
2022-09-12T19:41:20.319Z,7.10
2022-09-12T19:44:05.562Z,7.40
2022-09-12T19:46:51.034Z,7.00
2022-09-12T19:49:36.299Z,7.57
2022-09-12T19:52:21.230Z,6.83
2022-09-12T19:55:06.794Z,6.77
2022-09-12T19:57:52.011Z,7.13
2022-09-12T20:00:37.293Z,7.33
2022-09-12T20:03:25.429Z,7.20
2022-09-12T20:06:13.263Z,7.37
2022-09-12T20:08:58.822Z,7.33
2022-09-12T20:11:43.772Z,6.10
2022-09-12T20:14:28.620Z,6.83
2022-09-12T20:17:13.480Z,7.53
2022-09-12T20:19:58.408Z,6.50
2022-09-12T20:22:43.403Z,6.67
2022-09-12T20:25:28.314Z,6.50
2022-09-12T20:28:13.145Z,6.57
2022-09-12T20:31:15.243Z,7.00
2022-09-12T20:34:00.433Z,6.63
2022-09-12T20:36:46.558Z,6.30
2022-09-12T20:39:31.322Z,6.47
2022-09-12T20:42:16.208Z,6.60
2022-09-12T20:45:01.019Z,6.20
2022-09-12T20:47:45.920Z,6.00
2022-09-12T20:50:31.246Z,6.53
2022-09-12T20:53:16.633Z,7.13
2022-09-12T20:56:01.897Z,6.47
2022-09-12T20:58:46.830Z,6.03
2022-09-12T21:01:32.677Z,6.30
2022-09-12T21:04:18.514Z,6.37
2022-09-12T21:07:03.477Z,7.10
2022-09-12T21:09:48.405Z,6.37
2022-09-12T21:12:33.458Z,6.37
2022-09-12T21:15:18.695Z,6.37
2022-09-12T21:18:04.279Z,6.23
2022-09-12T21:20:53.388Z,6.77
2022-09-12T21:23:39.271Z,6.67
2022-09-12T21:26:24.510Z,6.50
2022-09-12T21:29:09.427Z,6.20
2022-09-12T21:31:54.446Z,6.53
2022-09-12T21:34:41.648Z,6.03
2022-09-12T21:37:27.385Z,5.77
2022-09-12T21:40:12.297Z,5.93
2022-09-12T21:42:58.299Z,6.37
2022-09-12T21:45:43.591Z,6.10
2022-09-12T21:48:28.915Z,5.80
2022-09-12T21:51:13.813Z,5.90
2022-09-12T21:53:58.702Z,6.57
2022-09-12T21:56:43.941Z,6.07
2022-09-12T21:59:29.210Z,6.10
2022-09-12T22:02:15.540Z,6.23
2022-09-12T22:05:00.544Z,5.73
2022-09-12T22:07:45.391Z,6.20
2022-09-12T22:10:30.547Z,6.17
2022-09-12T22:13:15.828Z,5.70
2022-09-12T22:16:02.881Z,6.30
2022-09-12T22:18:50.583Z,5.87
2022-09-12T22:21:55.514Z,5.80
2022-09-12T22:24:40.445Z,5.40
2022-09-12T22:27:25.606Z,5.77
2022-09-12T22:30:11.698Z,5.73
2022-09-12T22:32:56.545Z,5.97
2022-09-12T22:35:42.341Z,5.60
2022-09-12T22:38:27.901Z,5.67
2022-09-12T22:41:13.220Z,5.33
2022-09-12T22:43:58.461Z,5.60
2022-09-12T22:46:44.374Z,5.13
2022-09-12T22:49:29.595Z,5.60
2022-09-12T22:52:16.159Z,5.50
2022-09-12T22:55:01.448Z,6.00
2022-09-12T22:57:46.281Z,5.50
2022-09-12T23:00:31.934Z,5.30
2022-09-12T23:03:18.719Z,5.93
2022-09-12T23:06:05.033Z,5.57
2022-09-12T23:08:50.599Z,5.30
2022-09-12T23:11:35.513Z,4.97
2022-09-12T23:14:20.533Z,5.43
2022-09-12T23:17:05.850Z,5.60
2022-09-12T23:19:50.764Z,5.47
2022-09-12T23:22:37.071Z,5.50
2022-09-12T23:25:23.546Z,5.70
2022-09-12T23:28:08.369Z,5.17
2022-09-12T23:30:56.878Z,5.57
2022-09-12T23:33:41.750Z,5.33
2022-09-12T23:36:27.118Z,5.00
2022-09-12T23:39:12.678Z,5.43
2022-09-12T23:41:57.834Z,5.53
2022-09-12T23:44:42.838Z,5.50
2022-09-12T23:47:27.875Z,5.57
2022-09-12T23:50:13.077Z,5.27
2022-09-12T23:52:57.855Z,4.50
2022-09-12T23:55:44.693Z,4.90
2022-09-12T23:58:32.905Z,5.23
